Time;durP1;ratioP1;P1;durP2;ratioP2;P2;SDS_P1;SDS_P2;PMS_P1;PMS_P2;Temp;Humidity;BMP_temperature;BMP_pressure;BME280_temperature;BME280_humidity;BME280_pressure;Samples;Min_cycle;Max_cycle;Signal;HPM_P1;HPM_P2
2024/03/11 00:00:05;;;;;;;35.97;28.13;;;8.50;99.90;;;;;;5076629;28;20468;-62
2024/03/11 00:02:33;;;;;;;33.53;28.80;;;8.50;99.90;;;;;;5076532;28;20458;-61
2024/03/11 00:05:01;;;;;;;33.47;29.10;;;8.40;99.90;;;;;;5076828;28;20806;-61
2024/03/11 00:07:33;;;;;;;36.90;30.17;;;8.50;99.90;;;;;;5075721;28;20457;-62
2024/03/11 00:10:01;;;;;;;33.87;29.53;;;8.50;99.90;;;;;;5075780;28;20461;-62
2024/03/11 00:12:29;;;;;;;32.97;27.87;;;8.40;99.90;;;;;;5075797;28;20489;-63
2024/03/11 00:14:57;;;;;;;36.87;30.40;;;8.40;99.90;;;;;;5075809;28;20883;-62
2024/03/11 00:17:24;;;;;;;32.60;28.23;;;8.40;99.90;;;;;;5075742;28;20759;-63
2024/03/11 00:19:52;;;;;;;35.47;30.10;;;8.50;99.90;;;;;;5074996;28;20515;-63
2024/03/11 00:22:21;;;;;;;39.27;31.67;;;8.50;99.90;;;;;;5075046;28;20453;-64
2024/03/11 00:24:49;;;;;;;35.77;31.60;;;8.50;99.90;;;;;;5075147;28;20547;-64
2024/03/11 00:27:17;;;;;;;38.43;32.07;;;8.60;99.90;;;;;;5074758;28;20496;-64
2024/03/11 00:29:44;;;;;;;35.17;29.90;;;8.60;99.90;;;;;;5075372;28;20461;-64
2024/03/11 00:32:14;;;;;;;35.67;31.03;;;8.50;99.90;;;;;;5075982;28;20489;-64
2024/03/11 00:34:42;;;;;;;36.20;31.23;;;8.60;99.90;;;;;;5078800;28;20501;-64
2024/03/11 00:37:12;;;;;;;38.63;33.00;;;8.50;1.00;;;;;;5080939;28;20461;-64
2024/03/11 00:39:39;;;;;;;36.83;30.00;;;8.50;1.00;;;;;;5080673;28;20500;-65
2024/03/11 00:42:08;;;;;;;36.27;29.83;;;8.50;1.00;;;;;;5080401;28;20462;-65
2024/03/11 00:44:35;;;;;;;38.70;31.40;;;8.50;1.00;;;;;;5080840;28;20432;-65
2024/03/11 00:47:05;;;;;;;34.53;29.90;;;8.50;1.00;;;;;;5080373;28;20501;-65
2024/03/11 00:49:32;;;;;;;37.23;31.07;;;8.40;1.00;;;;;;5080470;28;20909;-66
2024/03/11 00:52:00;;;;;;;34.27;30.07;;;8.40;1.00;;;;;;5079713;28;20493;-66
2024/03/11 00:54:27;;;;;;;35.83;29.87;;;8.30;1.00;;;;;;5079203;28;20546;-66
2024/03/11 00:56:55;;;;;;;42.53;33.20;;;8.30;1.00;;;;;;5078688;28;20531;-66
2024/03/11 00:59:24;;;;;;;40.53;33.70;;;8.30;1.00;;;;;;5080092;28;20967;-66
2024/03/11 01:01:52;;;;;;;38.80;31.37;;;8.20;1.00;;;;;;5078826;28;20530;-67
2024/03/11 01:04:21;;;;;;;39.70;33.27;;;8.30;1.00;;;;;;5078883;28;20458;-67
2024/03/11 01:06:48;;;;;;;40.63;33.57;;;8.30;1.00;;;;;;5079867;28;20507;-66
2024/03/11 01:09:20;;;;;;;41.67;34.67;;;8.30;1.00;;;;;;5080282;28;20487;-66
2024/03/11 01:11:47;;;;;;;39.30;34.53;;;8.30;1.00;;;;;;5079974;28;20583;-66
2024/03/11 01:14:15;;;;;;;45.20;36.70;;;8.20;1.00;;;;;;5080003;28;20916;-66
2024/03/11 01:16:44;;;;;;;43.47;35.07;;;8.20;1.00;;;;;;5079808;28;20557;-66
2024/03/11 01:19:11;;;;;;;42.10;35.60;;;8.20;1.00;;;;;;5079695;28;20489;-66
2024/03/11 01:21:38;;;;;;;44.50;37.70;;;8.20;1.00;;;;;;5079931;28;20457;-67
2024/03/11 01:24:08;;;;;;;44.70;37.53;;;8.30;1.00;;;;;;5079638;28;20506;-67
2024/03/11 01:26:36;;;;;;;46.00;36.23;;;8.30;1.00;;;;;;5079656;28;20481;-67
2024/03/11 01:29:03;;;;;;;45.23;36.60;;;8.30;1.00;;;;;;5079945;28;20495;-67
2024/03/11 01:31:31;;;;;;;46.93;37.80;;;8.30;1.00;;;;;;5079859;28;20627;-67
2024/03/11 01:34:00;;;;;;;42.53;35.90;;;8.30;1.00;;;;;;5079226;28;20461;-68
2024/03/11 01:36:34;;;;;;;44.30;36.13;;;8.30;1.00;;;;;;5079626;28;20464;-68
2024/03/11 01:39:01;;;;;;;45.77;37.27;;;8.30;1.00;;;;;;5079535;28;20465;-68
2024/03/11 01:41:28;;;;;;;46.50;37.33;;;8.20;1.00;;;;;;5079795;28;20552;-67
2024/03/11 01:43:56;;;;;;;41.60;35.47;;;8.20;6.80;;;;;;5079426;28;20490;-67
2024/03/11 01:46:23;;;;;;;44.87;36.97;;;8.20;35.50;;;;;;5078152;28;20467;-67
2024/03/11 01:48:50;;;;;;;42.70;36.47;;;8.20;65.80;;;;;;5079534;28;20489;-68
2024/03/11 01:51:21;;;;;;;45.90;38.43;;;8.20;99.90;;;;;;5079804;28;20468;-67
2024/03/11 01:53:51;;;;;;;43.73;36.77;;;8.20;99.90;;;;;;5078790;28;20493;-67
2024/03/11 01:56:20;;;;;;;40.83;35.10;;;8.20;99.90;;;;;;5079111;28;20465;-66
2024/03/11 01:58:50;;;;;;;43.00;37.90;;;8.20;99.90;;;;;;5079114;28;20961;-66
2024/03/11 02:01:18;;;;;;;44.73;37.33;;;8.20;99.90;;;;;;5079188;28;20879;-66
2024/03/11 02:03:46;;;;;;;42.47;37.20;;;8.30;99.90;;;;;;5078730;28;20492;-66
2024/03/11 02:06:14;;;;;;;45.73;37.60;;;8.30;99.90;;;;;;5078807;28;20443;-65
2024/03/11 02:08:42;;;;;;;44.70;36.30;;;8.30;99.90;;;;;;5078816;28;20457;-65
2024/03/11 02:11:11;;;;;;;43.80;36.87;;;8.30;99.90;;;;;;5078912;28;20475;-65
2024/03/11 02:13:38;;;;;;;43.10;37.07;;;8.30;99.90;;;;;;5079032;28;20848;-65
2024/03/11 02:16:06;;;;;;;41.13;35.80;;;8.30;99.90;;;;;;5077742;28;20974;-64
2024/03/11 02:18:34;;;;;;;41.73;36.37;;;8.30;99.90;;;;;;5077276;28;20534;-64
2024/03/11 02:21:03;;;;;;;42.00;35.37;;;8.30;99.90;;;;;;5076728;28;20538;-64
2024/03/11 02:23:31;;;;;;;38.70;33.00;;;8.30;99.90;;;;;;5077408;28;20461;-66
2024/03/11 02:25:59;;;;;;;45.53;37.60;;;8.30;99.90;;;;;;5076906;28;20526;-66
2024/03/11 02:28:26;;;;;;;43.87;35.27;;;8.30;99.90;;;;;;5077099;28;20869;-66
2024/03/11 02:30:53;;;;;;;45.63;37.60;;;8.30;99.90;;;;;;5077327;28;20496;-65
2024/03/11 02:33:20;;;;;;;46.17;36.43;;;8.30;99.90;;;;;;5078076;28;20864;-65
2024/03/11 02:35:48;;;;;;;47.43;37.90;;;8.30;99.90;;;;;;5078671;28;20452;-64
2024/03/11 02:38:15;;;;;;;44.50;35.70;;;8.30;99.90;;;;;;5077988;28;20461;-65
2024/03/11 02:40:44;;;;;;;41.17;36.10;;;8.20;99.90;;;;;;5078328;28;20561;-64
2024/03/11 02:43:11;;;;;;;43.43;34.97;;;8.30;99.90;;;;;;5078543;28;20454;-65
2024/03/11 02:45:39;;;;;;;46.13;38.13;;;8.30;99.90;;;;;;5078357;28;20507;-66
2024/03/11 02:48:07;;;;;;;43.17;35.67;;;8.20;99.90;;;;;;5078037;28;20499;-65
2024/03/11 02:50:35;;;;;;;45.90;36.00;;;8.20;99.90;;;;;;5077923;28;20465;-66
2024/03/11 02:53:04;;;;;;;40.23;35.07;;;8.20;99.90;;;;;;5077904;28;20489;-67
2024/03/11 02:55:31;;;;;;;44.30;35.57;;;8.20;99.90;;;;;;5078121;28;20442;-66
2024/03/11 02:58:00;;;;;;;44.23;36.10;;;8.20;99.90;;;;;;5077800;28;20501;-64
2024/03/11 03:00:27;;;;;;;47.87;38.07;;;8.20;99.90;;;;;;5077796;28;20514;-66
2024/03/11 03:02:55;;;;;;;41.87;35.20;;;8.20;99.90;;;;;;5077925;28;20489;-66
2024/03/11 03:05:22;;;;;;;45.17;35.13;;;8.10;99.90;;;;;;5078228;28;20489;-67
2024/03/11 03:07:50;;;;;;;45.60;36.27;;;8.10;99.90;;;;;;5077492;28;20930;-67
2024/03/11 03:10:17;;;;;;;48.20;38.27;;;8.20;99.90;;;;;;5077624;28;20960;-68
2024/03/11 03:12:45;;;;;;;44.70;37.40;;;8.20;99.90;;;;;;5077477;28;20489;-67
2024/03/11 03:15:13;;;;;;;43.57;34.80;;;8.20;99.90;;;;;;5077367;28;20449;-66
2024/03/11 03:17:41;;;;;;;42.63;35.57;;;8.20;99.90;;;;;;5077689;28;20453;-66
2024/03/11 03:20:11;;;;;;;41.30;34.17;;;8.20;99.90;;;;;;5077511;28;20564;-66
2024/03/11 03:22:38;;;;;;;43.23;35.40;;;8.20;99.90;;;;;;5077757;28;20461;-68
2024/03/11 03:25:06;;;;;;;44.57;36.50;;;8.10;99.90;;;;;;5077682;28;20963;-68
2024/03/11 03:27:33;;;;;;;49.50;36.57;;;8.10;99.90;;;;;;5076446;28;20481;-69
2024/03/11 03:30:00;;;;;;;45.43;35.63;;;8.20;99.90;;;;;;5077565;28;20460;-68
2024/03/11 03:32:29;;;;;;;42.47;34.87;;;8.20;99.90;;;;;;5077208;28;20584;-69
2024/03/11 03:34:56;;;;;;;44.30;35.90;;;8.10;99.90;;;;;;5077801;28;20515;-69
2024/03/11 03:37:23;;;;;;;46.87;37.07;;;8.10;99.90;;;;;;5077353;28;20464;-68
2024/03/11 03:39:51;;;;;;;43.80;36.43;;;8.20;99.90;;;;;;5077155;28;20476;-69
2024/03/11 03:42:18;;;;;;;45.23;35.40;;;8.20;99.90;;;;;;5077176;28;20810;-69
2024/03/11 03:44:45;;;;;;;46.43;37.07;;;8.20;99.90;;;;;;5077080;28;20504;-68
2024/03/11 03:47:12;;;;;;;45.10;37.30;;;8.20;99.90;;;;;;5077638;28;20457;-70
2024/03/11 03:49:41;;;;;;;43.70;36.47;;;8.20;99.90;;;;;;5076864;28;20485;-69
2024/03/11 03:52:08;;;;;;;46.10;36.20;;;8.20;99.90;;;;;;5076658;28;20492;-69
2024/03/11 03:54:36;;;;;;;45.17;36.60;;;8.20;99.90;;;;;;5060984;28;20959;-68
2024/03/11 03:57:03;;;;;;;45.90;36.40;;;8.10;99.90;;;;;;5055099;28;20440;-68
2024/03/11 03:59:33;;;;;;;47.80;36.77;;;8.10;99.90;;;;;;5055518;28;20505;-68
2024/03/11 04:02:00;;;;;;;42.77;36.13;;;8.20;99.90;;;;;;5055302;28;20462;-68
2024/03/11 04:04:27;;;;;;;48.00;36.13;;;8.10;99.90;;;;;;5055415;28;20486;-67
2024/03/11 04:06:56;;;;;;;43.97;35.63;;;8.20;99.90;;;;;;5055576;28;20497;-67
2024/03/11 04:09:23;;;;;;;43.30;34.40;;;8.20;99.90;;;;;;5057164;28;20462;-66
2024/03/11 04:11:50;;;;;;;41.70;36.60;;;8.20;99.90;;;;;;5061002;28;20879;-67
2024/03/11 04:14:17;;;;;;;44.70;37.10;;;8.20;99.90;;;;;;5059533;28;20923;-68
2024/03/11 04:16:45;;;;;;;42.70;35.00;;;8.20;99.90;;;;;;5058457;28;20458;-67
2024/03/11 04:19:12;;;;;;;44.90;35.57;;;8.20;99.90;;;;;;5057777;28;20556;-68
2024/03/11 04:21:39;;;;;;;41.27;31.63;;;8.20;99.90;;;;;;5057626;28;20532;-69
2024/03/11 04:24:11;;;;;;;38.27;31.40;;;8.20;99.90;;;;;;5057733;28;20731;-70
2024/03/11 04:26:39;;;;;;;38.20;29.90;;;8.20;99.90;;;;;;5057422;28;20498;-71
2024/03/11 04:29:06;;;;;;;37.20;30.13;;;8.20;99.90;;;;;;5058986;28;20466;-70
2024/03/11 04:31:34;;;;;;;36.77;29.47;;;8.10;99.90;;;;;;5059811;28;20458;-71
2024/03/11 04:34:01;;;;;;;35.07;27.90;;;8.20;99.90;;;;;;5060485;28;20596;-71
2024/03/11 04:36:28;;;;;;;31.80;27.70;;;8.20;99.90;;;;;;5060800;28;20462;-71
2024/03/11 04:38:55;;;;;;;32.33;26.73;;;8.20;99.90;;;;;;5060083;28;20509;-71
2024/03/11 04:41:24;;;;;;;31.43;27.00;;;8.10;99.90;;;;;;5060598;28;20792;-71
2024/03/11 04:43:51;;;;;;;34.60;27.70;;;8.10;99.90;;;;;;5060312;28;20884;-71
2024/03/11 04:46:18;;;;;;;34.07;27.70;;;8.10;99.90;;;;;;5060152;28;20520;-70
2024/03/11 04:48:46;;;;;;;31.20;26.67;;;8.10;99.90;;;;;;5060801;28;20879;-70
2024/03/11 04:51:13;;;;;;;32.73;26.87;;;8.00;99.90;;;;;;5060786;28;20440;-70
2024/03/11 04:53:40;;;;;;;32.70;26.90;;;8.10;99.90;;;;;;5060348;28;20493;-71
2024/03/11 04:56:08;;;;;;;31.07;26.43;;;8.10;99.90;;;;;;5066562;28;20922;-71
2024/03/11 04:58:37;;;;;;;30.50;26.07;;;8.10;99.90;;;;;;5078547;28;20560;-71
2024/03/11 05:01:05;;;;;;;32.67;26.47;;;8.10;99.90;;;;;;5079278;28;20465;-71
2024/03/11 05:03:33;;;;;;;32.10;26.13;;;8.10;99.90;;;;;;5080429;28;20458;-72
2024/03/11 05:06:01;;;;;;;31.13;26.37;;;8.10;99.90;;;;;;5079292;28;20436;-71
2024/03/11 05:08:28;;;;;;;27.93;24.47;;;8.10;99.90;;;;;;5079683;28;20464;-72
2024/03/11 05:10:55;;;;;;;31.67;26.93;;;8.10;99.90;;;;;;5079392;28;20472;-72
2024/03/11 05:13:22;;;;;;;28.13;25.00;;;8.10;99.90;;;;;;5079980;28;20541;-72
2024/03/11 05:15:52;;;;;;;30.10;25.47;;;8.00;99.90;;;;;;5080035;28;20866;-72
2024/03/11 05:18:22;;;;;;;28.50;24.77;;;8.10;99.90;;;;;;5080007;28;20501;-71
2024/03/11 05:20:49;;;;;;;30.50;26.20;;;8.10;99.90;;;;;;5080053;28;20471;-72
2024/03/11 05:23:16;;;;;;;27.80;24.13;;;8.10;99.90;;;;;;5079914;28;20578;-71
2024/03/11 05:25:45;;;;;;;28.60;24.50;;;8.10;99.90;;;;;;5079813;28;20523;-72
2024/03/11 05:28:13;;;;;;;29.33;24.53;;;8.10;99.90;;;;;;5079711;28;20489;-72
2024/03/11 05:30:40;;;;;;;28.63;24.73;;;8.10;99.90;;;;;;5078794;28;20453;-72
2024/03/11 05:33:09;;;;;;;23.77;21.23;;;8.10;99.90;;;;;;5079543;28;20496;-72
2024/03/11 05:35:37;;;;;;;26.90;23.23;;;8.10;99.90;;;;;;5079870;28;20461;-72
2024/03/11 05:38:04;;;;;;;26.27;22.20;;;8.10;99.90;;;;;;5079551;28;20467;-72
2024/03/11 05:40:31;;;;;;;21.90;19.20;;;8.20;99.90;;;;;;5079200;28;20481;-72
2024/03/11 05:42:59;;;;;;;22.27;19.90;;;8.10;99.90;;;;;;5079462;28;20552;-72
2024/03/11 05:45:26;;;;;;;21.80;19.07;;;8.00;99.90;;;;;;5079471;28;20458;-71
2024/03/11 05:47:53;;;;;;;25.07;22.37;;;8.10;99.90;;;;;;5079217;28;20917;-71
2024/03/11 05:50:22;;;;;;;30.83;25.67;;;8.10;99.90;;;;;;5079351;28;20466;-71
2024/03/11 05:52:49;;;;;;;29.87;26.53;;;8.10;99.90;;;;;;5079071;28;20512;-70
2024/03/11 05:55:18;;;;;;;29.90;25.33;;;8.00;99.90;;;;;;5079208;28;20531;-71
2024/03/11 05:57:48;;;;;;;31.23;26.87;;;8.10;99.90;;;;;;5078884;28;20505;-71
2024/03/11 06:00:16;;;;;;;32.93;28.50;;;8.10;99.90;;;;;;5078971;28;20466;-71
2024/03/11 06:02:44;;;;;;;33.80;28.43;;;8.00;99.90;;;;;;5078857;28;20432;-71
2024/03/11 06:05:12;;;;;;;39.70;31.57;;;8.10;99.90;;;;;;5079129;28;20484;-71
2024/03/11 06:07:42;;;;;;;39.37;30.20;;;8.10;99.90;;;;;;5079046;28;20461;-70
2024/03/11 06:10:10;;;;;;;40.73;32.20;;;8.10;99.90;;;;;;5078825;28;20464;-70
2024/03/11 06:12:37;;;;;;;42.10;34.07;;;8.10;99.90;;;;;;5078698;28;20878;-70
2024/03/11 06:15:06;;;;;;;41.30;31.80;;;8.10;99.90;;;;;;5078793;28;20457;-70
2024/03/11 06:17:33;;;;;;;45.20;32.77;;;8.10;99.90;;;;;;5078775;28;20902;-70
2024/03/11 06:20:04;;;;;;;43.97;32.27;;;8.10;99.90;;;;;;5077087;28;20530;-69
2024/03/11 06:22:32;;;;;;;40.07;30.30;;;8.10;99.90;;;;;;5077300;28;20482;-70
2024/03/11 06:25:00;;;;;;;44.97;33.50;;;8.10;99.90;;;;;;5077348;28;20509;-69
2024/03/11 06:27:28;;;;;;;44.00;32.70;;;8.00;99.90;;;;;;5076820;28;20567;-70
2024/03/11 06:29:56;;;;;;;46.57;33.63;;;8.00;99.90;;;;;;5076568;28;20428;-71
2024/03/11 06:32:30;;;;;;;43.23;33.53;;;8.00;99.90;;;;;;5076898;28;20878;-72
2024/03/11 06:34:57;;;;;;;49.03;35.87;;;8.00;99.90;;;;;;5078319;28;20924;-72
2024/03/11 06:37:25;;;;;;;44.40;32.80;;;8.00;99.90;;;;;;5078545;28;20556;-71
2024/03/11 06:39:52;;;;;;;43.50;33.40;;;7.90;99.90;;;;;;5077088;28;20835;-72
2024/03/11 06:42:22;;;;;;;41.37;32.60;;;7.90;99.90;;;;;;5078451;28;20504;-71
2024/03/11 06:44:50;;;;;;;43.60;32.50;;;7.90;99.90;;;;;;5078256;28;20454;-70
2024/03/11 06:47:17;;;;;;;42.47;33.70;;;7.70;99.90;;;;;;5078106;28;20457;-71
2024/03/11 06:49:45;;;;;;;43.73;33.20;;;7.80;99.90;;;;;;5077858;28;20771;-72
2024/03/11 06:52:12;;;;;;;43.20;33.17;;;7.90;99.90;;;;;;5077812;28;20457;-71
2024/03/11 06:54:40;;;;;;;47.63;34.80;;;7.90;99.90;;;;;;5078473;28;20954;-72
2024/03/11 06:57:10;;;;;;;49.60;36.63;;;7.80;99.90;;;;;;5078007;28;20497;-72
2024/03/11 06:59:38;;;;;;;49.00;35.60;;;7.80;99.90;;;;;;5078331;28;20461;-72
2024/03/11 07:02:06;;;;;;;48.57;35.30;;;7.90;99.90;;;;;;5077298;28;20461;-72
2024/03/11 07:04:33;;;;;;;50.70;36.30;;;7.90;99.90;;;;;;5077567;28;20544;-72
2024/03/11 07:07:01;;;;;;;53.10;36.30;;;7.80;99.90;;;;;;5077902;28;20548;-72
2024/03/11 07:09:28;;;;;;;53.90;37.70;;;7.90;99.90;;;;;;5077836;28;20501;-72
2024/03/11 07:11:55;;;;;;;55.70;39.53;;;7.90;99.90;;;;;;5077244;28;20463;-72
2024/03/11 07:14:23;;;;;;;52.37;38.90;;;8.00;99.90;;;;;;5077754;28;20471;-72
2024/03/11 07:16:53;;;;;;;60.47;42.03;;;8.00;99.90;;;;;;5076754;28;20469;-71
2024/03/11 07:19:21;;;;;;;55.93;39.60;;;8.00;99.90;;;;;;5077928;28;20754;-71
2024/03/11 07:21:48;;;;;;;57.70;43.37;;;8.00;99.90;;;;;;5077020;28;20473;-72
2024/03/11 07:24:19;;;;;;;52.90;39.77;;;8.00;99.90;;;;;;5077317;28;20461;-72
2024/03/11 07:26:46;;;;;;;53.97;39.80;;;8.00;99.90;;;;;;5076761;28;20488;-73
2024/03/11 07:29:14;;;;;;;61.43;41.97;;;8.00;99.90;;;;;;5077235;28;20560;-73
2024/03/11 07:31:43;;;;;;;56.80;41.50;;;8.10;99.90;;;;;;5077639;28;20461;-73
2024/03/11 07:34:12;;;;;;;53.60;39.53;;;8.00;99.90;;;;;;5077365;28;20497;-73
2024/03/11 07:36:39;;;;;;;52.67;40.13;;;8.00;99.90;;;;;;5077432;28;20917;-73
2024/03/11 07:39:10;;;;;;;60.50;42.20;;;8.00;99.90;;;;;;5077797;28;20905;-74
2024/03/11 07:41:37;;;;;;;63.13;44.17;;;8.00;99.90;;;;;;5077402;28;20462;-73
2024/03/11 07:44:06;;;;;;;61.73;41.40;;;8.00;99.90;;;;;;5076440;28;20534;-73
2024/03/11 07:46:34;;;;;;;55.30;41.00;;;8.00;99.90;;;;;;5077354;28;20461;-72
2024/03/11 07:49:01;;;;;;;61.67;41.20;;;8.00;99.90;;;;;;5077133;28;20465;-73
2024/03/11 07:51:30;;;;;;;62.43;43.40;;;8.10;99.90;;;;;;5077336;28;20424;-73
2024/03/11 07:53:57;;;;;;;61.50;41.50;;;8.00;99.90;;;;;;5077187;28;20500;-73
2024/03/11 07:56:25;;;;;;;60.03;41.10;;;8.10;99.90;;;;;;5077644;28;20461;-73
2024/03/11 07:58:52;;;;;;;64.57;42.90;;;8.00;99.90;;;;;;5077073;28;20457;-73
2024/03/11 08:01:21;;;;;;;59.93;41.33;;;8.00;99.90;;;;;;5077349;28;20565;-73
2024/03/11 08:03:50;;;;;;;61.77;41.60;;;7.90;99.90;;;;;;5077110;28;20501;-73
2024/03/11 08:06:18;;;;;;;65.20;40.33;;;8.00;99.90;;;;;;5077126;28;20461;-73
2024/03/11 08:08:47;;;;;;;62.03;41.80;;;7.90;99.90;;;;;;5075876;28;20457;-71
2024/03/11 08:11:14;;;;;;;61.17;42.20;;;7.90;99.90;;;;;;5076569;28;20457;-72
2024/03/11 08:13:42;;;;;;;68.13;44.10;;;8.00;99.90;;;;;;5077413;28;20592;-72
2024/03/11 08:16:11;;;;;;;64.47;45.10;;;8.00;99.90;;;;;;5076865;28;20560;-73
2024/03/11 08:18:42;;;;;;;60.17;42.80;;;7.90;99.90;;;;;;5077110;28;20484;-73
2024/03/11 08:21:10;;;;;;;66.30;41.67;;;8.00;99.90;;;;;;5077352;28;20436;-73
2024/03/11 08:23:40;;;;;;;66.13;44.03;;;8.00;99.90;;;;;;5076870;28;20461;-73
2024/03/11 08:26:11;;;;;;;71.57;44.83;;;8.00;99.90;;;;;;5074832;28;20472;-73
2024/03/11 08:28:39;;;;;;;64.80;42.60;;;8.00;99.90;;;;;;5076939;28;20826;-73
2024/03/11 08:31:07;;;;;;;62.70;40.90;;;8.00;99.90;;;;;;5077147;28;20462;-73
2024/03/11 08:33:35;;;;;;;64.63;41.70;;;8.00;99.90;;;;;;5076875;28;20559;-73
2024/03/11 08:36:04;;;;;;;63.17;40.33;;;8.10;99.90;;;;;;5076734;28;20564;-72
2024/03/11 08:38:32;;;;;;;61.53;41.90;;;8.10;99.90;;;;;;5076761;28;20457;-72
2024/03/11 08:40:59;;;;;;;58.13;37.47;;;8.10;99.90;;;;;;5076465;28;20457;-72
2024/03/11 08:43:28;;;;;;;58.67;39.57;;;8.10;99.90;;;;;;5076978;28;20461;-72
2024/03/11 08:45:57;;;;;;;56.00;37.63;;;8.00;99.90;;;;;;5077599;28;20540;-71
2024/03/11 08:48:26;;;;;;;49.83;36.87;;;8.00;99.90;;;;;;5076886;28;20472;-71
2024/03/11 08:50:53;;;;;;;51.50;35.20;;;7.90;99.90;;;;;;5076985;28;20465;-72
2024/03/11 08:53:21;;;;;;;48.57;34.47;;;8.00;99.90;;;;;;5077048;28;20559;-72
2024/03/11 08:55:48;;;;;;;44.43;33.07;;;7.90;99.90;;;;;;5079542;28;20503;-73
2024/03/11 08:58:19;;;;;;;45.53;33.10;;;7.90;99.90;;;;;;5080371;28;20553;-73
2024/03/11 09:00:51;;;;;;;46.70;35.17;;;8.00;99.90;;;;;;5080157;28;20755;-73
2024/03/11 09:03:20;;;;;;;44.50;32.93;;;8.10;99.90;;;;;;5080540;28;20461;-70
2024/03/11 09:05:49;;;;;;;44.53;32.73;;;8.10;99.90;;;;;;5081544;28;20458;-69
2024/03/11 09:08:16;;;;;;;40.93;30.73;;;8.10;99.90;;;;;;5080379;28;20782;-70
2024/03/11 09:10:45;;;;;;;43.63;32.03;;;8.10;99.90;;;;;;5080305;28;20461;-73
2024/03/11 09:13:13;;;;;;;37.27;29.60;;;8.10;99.90;;;;;;5082600;28;20901;-74
2024/03/11 09:15:44;;;;;;;38.30;28.87;;;8.20;99.90;;;;;;5085428;28;20543;-73
2024/03/11 09:18:13;;;;;;;38.80;29.90;;;8.10;99.90;;;;;;5080266;28;20436;-72
2024/03/11 09:20:40;;;;;;;38.13;28.17;;;8.10;99.90;;;;;;5080371;28;20526;-71
2024/03/11 09:23:08;;;;;;;42.37;29.07;;;8.10;99.90;;;;;;5080097;28;20450;-72
2024/03/11 09:25:36;;;;;;;36.27;28.10;;;8.20;99.90;;;;;;5079988;28;20441;-71
2024/03/11 09:28:08;;;;;;;37.90;29.40;;;8.20;99.90;;;;;;5078828;28;20482;-71
2024/03/11 09:30:36;;;;;;;34.50;27.47;;;8.20;99.90;;;;;;5078267;28;20751;-72
2024/03/11 09:33:04;;;;;;;34.07;25.80;;;8.10;99.90;;;;;;5079033;28;20500;-71
2024/03/11 09:35:34;;;;;;;35.83;27.23;;;8.10;99.90;;;;;;5079408;28;20497;-71
2024/03/11 09:38:01;;;;;;;34.90;27.37;;;8.20;99.90;;;;;;5079093;28;20500;-72
2024/03/11 09:40:31;;;;;;;31.47;25.27;;;8.20;99.90;;;;;;5079299;28;20460;-72
2024/03/11 09:43:00;;;;;;;31.43;24.60;;;8.20;99.90;;;;;;5077925;28;20798;-71
2024/03/11 09:45:34;;;;;;;29.80;23.03;;;8.30;99.90;;;;;;5077925;28;20683;-72
2024/03/11 09:48:04;;;;;;;30.03;24.70;;;8.30;99.90;;;;;;5077119;28;20501;-71
2024/03/11 09:50:37;;;;;;;29.47;24.43;;;8.20;99.90;;;;;;5077074;28;20468;-72
2024/03/11 09:53:07;;;;;;;31.03;24.83;;;8.00;49.70;;;;;;5077628;28;20465;-73
2024/03/11 09:55:35;;;;;;;30.93;24.70;;;8.10;99.90;;;;;;5077943;28;20499;-72
2024/03/11 09:58:06;;;;;;;31.20;25.60;;;8.10;99.90;;;;;;5078950;28;20555;-73
2024/03/11 10:00:35;;;;;;;26.27;22.17;;;8.10;99.10;;;;;;5079429;28;20462;-72
2024/03/11 10:03:04;;;;;;;26.93;22.67;;;8.10;99.90;;;;;;5079348;28;20492;-72
2024/03/11 10:05:34;;;;;;;33.40;24.40;;;8.00;99.90;;;;;;5079293;28;20497;-73
2024/03/11 10:08:02;;;;;;;28.37;23.33;;;8.00;99.90;;;;;;5077881;28;20638;-73
2024/03/11 10:10:32;;;;;;;24.50;21.63;;;8.00;99.90;;;;;;5078606;28;20492;-73
2024/03/11 10:13:02;;;;;;;26.37;22.30;;;8.00;99.90;;;;;;5078669;28;20821;-73
2024/03/11 10:15:32;;;;;;;24.50;21.07;;;8.00;99.90;;;;;;5079403;28;20497;-72
2024/03/11 10:18:25;;;;;;;23.13;19.10;;;8.00;99.90;;;;;;5078604;28;20465;-73
2024/03/11 10:20:58;;;;;;;17.37;15.47;;;7.90;99.90;;;;;;5078779;28;20469;-73
2024/03/11 10:23:26;;;;;;;15.93;12.23;;;7.90;99.90;;;;;;5079046;28;20458;-72
2024/03/11 10:26:17;;;;;;;10.77;8.90;;;7.90;99.90;;;;;;5077215;28;20495;-72
2024/03/11 10:28:49;;;;;;;10.83;9.73;;;7.90;92.20;;;;;;5078635;28;20485;-70
2024/03/11 10:31:27;;;;;;;8.80;7.27;;;7.90;93.70;;;;;;5078672;28;20457;-72
2024/03/11 10:34:09;;;;;;;8.17;6.00;;;7.80;95.20;;;;;;5078089;28;20461;-72
2024/03/11 10:36:40;;;;;;;6.37;5.50;;;7.80;99.90;;;;;;5078371;28;20461;-71
2024/03/11 10:39:10;;;;;;;6.40;5.30;;;7.80;93.10;;;;;;5078713;28;20469;-72
2024/03/11 10:41:42;;;;;;;7.10;6.07;;;7.80;94.30;;;;;;5078728;28;20465;-72
2024/03/11 10:44:23;;;;;;;6.90;6.20;;;7.80;73.50;;;;;;5078476;28;20462;-71
2024/03/11 10:46:51;;;;;;;6.13;5.53;;;7.80;62.50;;;;;;5078297;28;20476;-71
2024/03/11 10:49:21;;;;;;;6.70;6.00;;;7.70;41.80;;;;;;5078236;28;20493;-68
2024/03/11 10:51:51;;;;;;;6.27;5.10;;;7.80;40.40;;;;;;5078073;28;20758;-67
2024/03/11 10:54:23;;;;;;;6.13;5.53;;;7.70;8.10;;;;;;5078272;28;20458;-68
2024/03/11 10:56:55;;;;;;;7.00;5.97;;;7.60;17.10;;;;;;5077702;28;20903;-70
2024/03/11 10:59:29;;;;;;;5.67;5.03;;;7.60;20.60;;;;;;5078942;28;20497;-67
2024/03/11 11:01:58;;;;;;;5.30;4.80;;;7.50;30.70;;;;;;5080965;28;20465;-69
2024/03/11 11:04:29;;;;;;;5.70;5.07;;;7.50;66.10;;;;;;5078791;28;20467;-68
2024/03/11 11:07:00;;;;;;;6.37;5.07;;;7.60;94.60;;;;;;5078666;28;20463;-68
2024/03/11 11:09:29;;;;;;;6.00;5.20;;;7.60;99.40;;;;;;5078299;28;20558;-70
2024/03/11 11:11:57;;;;;;;6.07;5.03;;;7.60;95.70;;;;;;5077866;28;20812;-70
2024/03/11 11:14:27;;;;;;;5.53;4.27;;;7.60;90.60;;;;;;5077624;28;20458;-67
2024/03/11 11:16:57;;;;;;;5.10;4.43;;;7.60;92.90;;;;;;5077774;28;20484;-67
2024/03/11 11:19:32;;;;;;;4.40;4.00;;;7.60;97.90;;;;;;5077821;28;20467;-65
2024/03/11 11:22:06;;;;;;;4.30;3.90;;;7.60;99.40;;;;;;5077370;28;20902;-66
2024/03/11 11:24:39;;;;;;;5.80;4.50;;;7.70;99.90;;;;;;5077237;28;20887;-67
2024/03/11 11:27:13;;;;;;;6.00;4.97;;;7.70;98.80;;;;;;5076431;28;20489;-66
2024/03/11 11:29:42;;;;;;;4.80;4.20;;;7.70;99.90;;;;;;5076576;28;20535;-65
2024/03/11 11:32:12;;;;;;;4.30;3.60;;;7.70;99.90;;;;;;5075871;28;20902;-67
2024/03/11 11:34:50;;;;;;;4.20;3.50;;;7.70;99.90;;;;;;5075962;28;20547;-69
2024/03/11 11:37:40;;;;;;;3.37;3.00;;;7.70;97.20;;;;;;5076529;28;20457;-66
2024/03/11 11:40:33;;;;;;;3.53;3.10;;;7.70;80.60;;;;;;5077231;28;20468;-67
2024/03/11 11:43:01;;;;;;;4.70;3.07;;;7.70;77.10;;;;;;5077228;28;20457;-65
2024/03/11 11:45:54;;;;;;;4.60;4.17;;;7.90;99.90;;;;;;5077313;28;20525;-64
2024/03/11 11:48:31;;;;;;;4.23;3.23;;;7.90;65.20;;;;;;5074535;28;20501;-64
2024/03/11 11:50:58;;;;;;;3.80;3.10;;;7.90;19.30;;;;;;5077460;28;20496;-65
2024/03/11 11:53:29;;;;;;;4.60;3.97;;;7.90;1.00;;;;;;5076678;28;20461;-67
2024/03/11 11:55:57;;;;;;;4.53;3.70;;;7.80;1.00;;;;;;5076914;28;20497;-67
2024/03/11 11:58:27;;;;;;;3.60;2.83;;;7.80;1.00;;;;;;5077010;28;20462;-66
2024/03/11 12:01:05;;;;;;;3.80;3.20;;;7.80;1.00;;;;;;5076056;28;20461;-65
2024/03/11 12:03:36;;;;;;;3.30;2.90;;;7.80;1.00;;;;;;5077403;28;20472;-64
2024/03/11 12:06:17;;;;;;;4.20;3.23;;;7.80;1.00;;;;;;5076764;28;20462;-64
2024/03/11 12:08:48;;;;;;;3.73;2.50;;;7.80;1.00;;;;;;5076691;28;20472;-65
2024/03/11 12:11:19;;;;;;;3.60;2.60;;;7.70;1.00;;;;;;5077254;28;20457;-66
2024/03/11 12:13:48;;;;;;;4.23;3.20;;;7.70;1.00;;;;;;5077008;28;20461;-67
2024/03/11 12:16:23;;;;;;;3.57;3.10;;;7.70;1.00;;;;;;5076840;28;20562;-65
2024/03/11 12:19:02;;;;;;;3.80;2.97;;;7.70;1.00;;;;;;5076667;28;20461;-65
2024/03/11 12:21:30;;;;;;;3.53;2.90;;;7.70;1.00;;;;;;5077489;28;20932;-65
2024/03/11 12:24:00;;;;;;;3.60;2.80;;;7.70;1.00;;;;;;5076438;28;20563;-66
2024/03/11 12:26:30;;;;;;;3.90;2.70;;;7.70;1.00;;;;;;5076819;28;20796;-65
2024/03/11 12:29:06;;;;;;;3.40;2.33;;;7.70;1.00;;;;;;5076592;28;20457;-67
2024/03/11 12:31:36;;;;;;;4.20;2.57;;;7.80;1.00;;;;;;5080662;28;20737;-66
2024/03/11 12:34:08;;;;;;;3.23;2.60;;;7.80;1.00;;;;;;5080726;28;20461;-66
2024/03/11 12:36:37;;;;;;;3.10;2.60;;;7.80;1.00;;;;;;5080527;28;20516;-67
2024/03/11 12:39:16;;;;;;;2.90;2.50;;;7.80;1.00;;;;;;5081147;28;20917;-67
2024/03/11 12:41:44;;;;;;;3.37;2.27;;;7.90;1.00;;;;;;5080488;28;20753;-67
2024/03/11 12:44:18;;;;;;;3.90;3.33;;;7.80;99.90;;;;;;5079990;28;20769;-65
2024/03/11 12:46:50;;;;;;;3.97;2.87;;;7.90;99.90;;;;;;5080683;28;20755;-66
2024/03/11 12:49:20;;;;;;;3.20;2.30;;;7.90;99.90;;;;;;5080495;28;20461;-67
2024/03/11 12:51:51;;;;;;;3.13;2.30;;;8.00;99.90;;;;;;5079602;28;21020;-67